Time;durP1;ratioP1;P1;durP2;ratioP2;P2;SDS_P1;SDS_P2;PMS_P1;PMS_P2;Temp;Humidity;BMP_temperature;BMP_pressure;BME280_temperature;BME280_humidity;BME280_pressure;Samples;Min_cycle;Max_cycle;Signal;HPM_P1;HPM_P2
2022/05/24 00:02:14;;;;;;;4.93;4.43;;;16.60;99.90;;;;;;5054513;28;20225;-65
2022/05/24 00:04:40;;;;;;;5.45;4.78;;;16.60;99.90;;;;;;5054938;28;20177;-66
2022/05/24 00:07:05;;;;;;;6.13;4.53;;;16.60;99.90;;;;;;5054067;28;20180;-66
2022/05/24 00:09:31;;;;;;;5.55;5.05;;;16.60;99.90;;;;;;5054753;28;20178;-66
2022/05/24 00:11:56;;;;;;;5.68;5.07;;;16.60;99.90;;;;;;5054687;28;20182;-65
2022/05/24 00:17:07;;;;;;;6.90;5.00;;;16.60;99.90;;;;;;5054301;28;20251;-66
2022/05/24 00:19:34;;;;;;;5.88;5.25;;;16.60;99.90;;;;;;5054743;28;20594;-66
2022/05/24 00:22:00;;;;;;;5.68;5.10;;;16.50;99.90;;;;;;5053569;28;20224;-65
2022/05/24 00:24:25;;;;;;;5.72;4.72;;;16.50;99.90;;;;;;5054110;28;20178;-66
2022/05/24 00:26:51;;;;;;;5.55;5.03;;;16.50;99.90;;;;;;5054432;28;20186;-66
2022/05/24 00:29:16;;;;;;;6.30;4.85;;;16.50;99.90;;;;;;5054328;28;20189;-66
2022/05/24 00:31:42;;;;;;;9.13;4.95;;;16.50;99.90;;;;;;5054157;28;20178;-66
2022/05/24 00:34:08;;;;;;;5.95;4.80;;;16.40;99.90;;;;;;5054150;28;20196;-66
2022/05/24 00:36:34;;;;;;;5.57;4.97;;;16.40;99.90;;;;;;5053822;28;20192;-66
2022/05/24 00:38:59;;;;;;;10.00;5.40;;;16.40;99.90;;;;;;5054040;28;20569;-65
2022/05/24 00:41:34;;;;;;;6.13;5.30;;;16.30;99.90;;;;;;5053811;28;20205;-66
2022/05/24 00:44:06;;;;;;;4.80;4.30;;;16.30;99.90;;;;;;5053656;28;20540;-65
2022/05/24 00:46:56;;;;;;;6.28;4.80;;;16.30;99.90;;;;;;5054190;28;20174;-67
2022/05/24 00:49:39;;;;;;;6.47;4.53;;;16.30;99.90;;;;;;5050035;28;20181;-67
2022/05/24 00:52:25;;;;;;;6.72;4.60;;;16.20;99.90;;;;;;5051326;28;20763;-66
2022/05/24 00:54:50;;;;;;;4.90;4.20;;;16.20;99.90;;;;;;5053640;28;20200;-66
2022/05/24 00:57:25;;;;;;;5.72;4.43;;;16.20;99.90;;;;;;5053731;28;20181;-66
2022/05/24 01:00:02;;;;;;;4.65;4.18;;;16.10;99.90;;;;;;5053721;28;20260;-67
2022/05/24 01:02:27;;;;;;;4.80;4.40;;;16.10;99.90;;;;;;5053502;28;20209;-66
2022/05/24 01:04:53;;;;;;;5.80;4.35;;;16.10;99.90;;;;;;5053527;28;20174;-67
2022/05/24 01:07:19;;;;;;;4.93;4.20;;;16.00;99.90;;;;;;5053387;28;20181;-66
2022/05/24 01:10:00;;;;;;;4.97;4.32;;;16.00;99.90;;;;;;5052450;28;20209;-67
2022/05/24 01:12:38;;;;;;;5.28;4.45;;;16.00;99.90;;;;;;5052924;28;20660;-67
2022/05/24 01:15:06;;;;;;;4.78;4.25;;;16.00;99.90;;;;;;5053360;28;20180;-66
2022/05/24 01:17:33;;;;;;;5.47;4.10;;;16.00;99.90;;;;;;5053478;28;20693;-67
2022/05/24 01:19:59;;;;;;;5.88;4.38;;;16.00;99.90;;;;;;5052891;28;20227;-66
2022/05/24 01:22:52;;;;;;;6.22;4.28;;;15.90;99.90;;;;;;5048553;28;20626;-67
2022/05/24 01:25:42;;;;;;;5.13;3.78;;;15.90;99.90;;;;;;5053348;28;20647;-66
2022/05/24 01:28:17;;;;;;;4.90;4.22;;;15.90;99.90;;;;;;5049409;28;20629;-67
2022/05/24 01:30:42;;;;;;;5.00;4.13;;;15.90;99.90;;;;;;5049317;28;20191;-67
2022/05/24 01:36:11;;;;;;;4.47;4.07;;;15.90;99.90;;;;;;5053114;28;20208;-67
2022/05/24 01:38:49;;;;;;;4.15;3.75;;;16.00;99.90;;;;;;5052799;28;20251;-67
2022/05/24 01:41:21;;;;;;;5.78;4.10;;;16.00;99.90;;;;;;5033275;28;20212;-67
2022/05/24 01:43:53;;;;;;;4.38;3.97;;;16.00;99.90;;;;;;5047881;28;20208;-67
2022/05/24 01:46:23;;;;;;;4.60;4.20;;;16.00;99.90;;;;;;5052525;28;20185;-66
2022/05/24 01:48:54;;;;;;;4.72;4.13;;;15.90;99.90;;;;;;5052844;28;20710;-67
2022/05/24 01:51:26;;;;;;;5.60;3.63;;;16.00;99.90;;;;;;5052603;28;20252;-67
2022/05/24 01:53:58;;;;;;;4.55;3.97;;;16.00;99.90;;;;;;5052214;28;20573;-66
2022/05/24 01:56:32;;;;;;;4.35;3.85;;;16.00;99.90;;;;;;5051926;28;20177;-66
2022/05/24 01:59:01;;;;;;;5.60;4.03;;;15.90;99.90;;;;;;5052719;28;20187;-65
2022/05/24 02:01:35;;;;;;;5.07;4.47;;;15.90;99.90;;;;;;5052525;28;20206;-66
2022/05/24 02:04:01;;;;;;;4.95;4.20;;;15.80;99.90;;;;;;5052466;28;20651;-66
2022/05/24 02:06:29;;;;;;;4.85;3.97;;;15.70;99.90;;;;;;5052248;28;20182;-67
2022/05/24 02:08:55;;;;;;;5.15;4.22;;;15.60;99.90;;;;;;5052237;28;20667;-67
2022/05/24 02:11:28;;;;;;;4.53;3.95;;;15.60;99.90;;;;;;5052402;28;20180;-66
2022/05/24 02:14:18;;;;;;;6.22;4.28;;;15.60;99.90;;;;;;5052472;28;20721;-66
2022/05/24 02:17:00;;;;;;;5.00;4.40;;;15.60;99.90;;;;;;5052029;28;20217;-67
2022/05/24 02:19:28;;;;;;;4.85;4.30;;;15.50;99.90;;;;;;5051897;28;20201;-66
2022/05/24 02:22:00;;;;;;;7.10;4.60;;;15.50;99.90;;;;;;5043933;28;20637;-66
2022/05/24 02:24:26;;;;;;;4.95;4.45;;;15.40;99.90;;;;;;5051116;28;20185;-66
2022/05/24 02:26:52;;;;;;;5.95;4.30;;;15.40;99.90;;;;;;5051604;28;20181;-66
2022/05/24 02:29:20;;;;;;;5.20;4.10;;;15.40;99.90;;;;;;5051843;28;20177;-67
2022/05/24 02:31:46;;;;;;;5.07;4.18;;;15.40;99.90;;;;;;5052297;28;20176;-68
2022/05/24 02:34:13;;;;;;;5.60;4.85;;;15.40;99.90;;;;;;5051870;28;20185;-66
2022/05/24 02:36:39;;;;;;;5.88;4.82;;;15.40;99.90;;;;;;5051865;28;20655;-67
2022/05/24 02:39:05;;;;;;;5.40;4.90;;;15.40;99.90;;;;;;5052224;28;20181;-66
2022/05/24 02:41:31;;;;;;;5.50;4.90;;;15.40;99.90;;;;;;5051434;28;20307;-67
2022/05/24 02:44:12;;;;;;;6.13;4.70;;;15.40;99.90;;;;;;5051880;28;20268;-66
2022/05/24 02:46:41;;;;;;;5.47;4.63;;;15.40;99.90;;;;;;5052052;28;20173;-66
2022/05/24 02:49:10;;;;;;;5.15;4.63;;;15.40;99.90;;;;;;5050579;28;20192;-66
2022/05/24 02:51:37;;;;;;;8.05;4.57;;;15.40;99.90;;;;;;5051605;28;20178;-66
2022/05/24 02:54:03;;;;;;;7.15;4.55;;;15.50;99.90;;;;;;5051763;28;20239;-66
2022/05/24 02:56:29;;;;;;;6.05;4.55;;;15.50;99.90;;;;;;5051442;28;20273;-66
2022/05/24 02:58:55;;;;;;;5.00;4.50;;;15.50;99.90;;;;;;5051706;28;20676;-66
2022/05/24 03:01:25;;;;;;;5.35;4.15;;;15.50;99.90;;;;;;5051238;28;20189;-66
2022/05/24 03:03:53;;;;;;;4.95;4.45;;;15.50;99.90;;;;;;5051827;28;20545;-65
2022/05/24 03:06:20;;;;;;;4.97;4.50;;;15.50;99.90;;;;;;5051497;28;20185;-66
2022/05/24 03:14:14;;;;;;;5.82;4.47;;;15.50;99.90;;;;;;5051597;28;20264;-66
2022/05/24 03:14:21;;;;;;;4.78;4.30;;;15.50;99.90;;;;;;5039126;28;20319;-66
2022/05/24 03:16:49;;;;;;;5.43;4.75;;;15.40;99.90;;;;;;5051375;28;20225;-66
2022/05/24 03:19:15;;;;;;;5.30;4.80;;;15.30;99.90;;;;;;5051803;28;20243;-66
2022/05/24 03:21:41;;;;;;;6.65;4.55;;;15.30;99.90;;;;;;5045201;28;20657;-67
2022/05/24 03:24:08;;;;;;;6.22;4.57;;;15.30;99.90;;;;;;5047910;28;20197;-67
2022/05/24 03:26:33;;;;;;;5.85;4.32;;;15.30;99.90;;;;;;5047835;28;20195;-67
2022/05/24 03:28:59;;;;;;;4.60;4.20;;;15.20;99.90;;;;;;5050479;28;20260;-66
2022/05/24 03:31:25;;;;;;;4.20;3.80;;;15.10;99.90;;;;;;5050811;28;20191;-67
2022/05/24 03:33:50;;;;;;;4.65;3.70;;;15.10;99.90;;;;;;5051131;28;20791;-67
2022/05/24 03:36:16;;;;;;;4.93;3.55;;;15.10;99.90;;;;;;5050921;28;20705;-67
2022/05/24 03:38:41;;;;;;;4.97;3.88;;;15.10;99.90;;;;;;5050647;28;20199;-67
2022/05/24 03:41:07;;;;;;;4.15;3.75;;;15.10;99.90;;;;;;5051141;28;20189;-67
2022/05/24 03:43:33;;;;;;;4.35;3.60;;;15.10;99.90;;;;;;5051192;28;20189;-67
2022/05/24 03:46:09;;;;;;;4.22;3.38;;;15.10;99.90;;;;;;5051119;28;20212;-67
2022/05/24 03:48:36;;;;;;;4.60;3.20;;;15.10;99.90;;;;;;5039500;28;20234;-67
2022/05/24 03:51:03;;;;;;;5.05;3.45;;;15.20;99.90;;;;;;5050849;28;20227;-66
2022/05/24 03:53:29;;;;;;;4.03;3.35;;;15.20;99.90;;;;;;5050926;28;20253;-70
2022/05/24 03:55:55;;;;;;;4.57;3.15;;;15.20;99.90;;;;;;5049510;28;20315;-68
2022/05/24 03:58:22;;;;;;;4.53;3.33;;;15.30;99.90;;;;;;5049774;28;20268;-67
2022/05/24 04:00:48;;;;;;;3.58;3.20;;;15.30;99.90;;;;;;5050127;28;20224;-68
2022/05/24 04:03:14;;;;;;;3.90;3.58;;;15.30;99.90;;;;;;5049831;28;20224;-66
2022/05/24 04:05:41;;;;;;;3.97;3.58;;;15.40;99.90;;;;;;5049757;28;20215;-65
2022/05/24 04:08:07;;;;;;;4.50;4.10;;;15.40;99.90;;;;;;5049983;28;20185;-67
2022/05/24 04:10:35;;;;;;;4.35;3.95;;;15.40;99.90;;;;;;5050572;28;20178;-65
2022/05/24 04:13:01;;;;;;;4.68;4.18;;;15.40;99.90;;;;;;5050759;28;20196;-67
2022/05/24 04:15:27;;;;;;;4.50;4.10;;;15.50;99.90;;;;;;5051087;28;20226;-70
2022/05/24 04:17:54;;;;;;;4.32;3.80;;;15.60;99.90;;;;;;5049982;28;20217;-67
2022/05/24 04:20:21;;;;;;;4.20;3.40;;;15.60;99.90;;;;;;5052455;28;20182;-68
2022/05/24 04:22:47;;;;;;;4.68;3.83;;;15.70;99.90;;;;;;5054391;28;20244;-66
2022/05/24 04:25:13;;;;;;;4.57;3.95;;;15.80;99.90;;;;;;5057279;28;20205;-65
2022/05/24 04:27:40;;;;;;;4.47;3.88;;;15.90;99.90;;;;;;5055368;28;20390;-63
2022/05/24 04:30:07;;;;;;;4.82;4.03;;;15.90;99.90;;;;;;5054381;28;20184;-67
2022/05/24 04:32:33;;;;;;;4.53;3.80;;;16.00;99.90;;;;;;5054173;28;20235;-64
2022/05/24 04:34:59;;;;;;;5.28;3.95;;;16.00;99.90;;;;;;5054050;28;20664;-64
2022/05/24 04:37:24;;;;;;;4.78;3.80;;;16.00;99.90;;;;;;5054568;28;20190;-64
2022/05/24 04:39:50;;;;;;;4.00;3.60;;;16.00;99.90;;;;;;5054114;28;20180;-64
2022/05/24 04:42:19;;;;;;;4.82;3.83;;;16.10;99.90;;;;;;5053824;28;20316;-70
2022/05/24 04:44:47;;;;;;;3.92;3.63;;;16.10;99.90;;;;;;5052850;28;20216;-74
2022/05/24 04:47:13;;;;;;;5.28;3.53;;;16.10;99.90;;;;;;5053813;28;20660;-74
2022/05/24 04:49:46;;;;;;;3.60;3.30;;;16.10;99.90;;;;;;5054168;28;20186;-74
2022/05/24 04:52:13;;;;;;;3.67;3.38;;;16.10;99.90;;;;;;5053944;28;20194;-73
2022/05/24 04:54:40;;;;;;;5.10;2.90;;;16.00;99.90;;;;;;5053900;28;20192;-74
2022/05/24 04:57:07;;;;;;;4.20;3.40;;;16.00;99.90;;;;;;5053501;28;20200;-73
2022/05/24 04:59:33;;;;;;;3.42;2.85;;;15.90;99.90;;;;;;5053376;28;20170;-71
2022/05/24 05:01:59;;;;;;;3.20;2.60;;;16.00;99.90;;;;;;5053748;28;20211;-68
2022/05/24 05:04:25;;;;;;;3.20;2.90;;;15.90;99.90;;;;;;5053455;28;20184;-71
2022/05/24 05:06:51;;;;;;;5.22;4.00;;;15.90;99.90;;;;;;5053191;28;20544;-73
2022/05/24 05:09:17;;;;;;;5.60;3.00;;;16.00;99.90;;;;;;5053624;28;20255;-73
2022/05/24 05:11:43;;;;;;;3.30;2.50;;;15.90;99.90;;;;;;5053202;28;20597;-73
2022/05/24 05:14:09;;;;;;;2.80;2.60;;;15.90;99.90;;;;;;5053445;28;20181;-73
2022/05/24 05:16:36;;;;;;;4.07;3.20;;;16.00;99.90;;;;;;5053163;28;20217;-72
2022/05/24 05:19:03;;;;;;;4.82;2.83;;;16.10;99.90;;;;;;5053607;28;20196;-73
2022/05/24 05:21:31;;;;;;;3.00;2.72;;;16.20;99.90;;;;;;5053671;28;20186;-73
2022/05/24 05:23:57;;;;;;;2.53;2.30;;;16.30;99.90;;;;;;5053012;28;20649;-73
2022/05/24 05:26:22;;;;;;;2.65;2.45;;;16.50;99.90;;;;;;5052404;28;20242;-74
2022/05/24 05:28:48;;;;;;;4.25;2.20;;;16.90;99.90;;;;;;5053290;28;20555;-71
2022/05/24 05:31:16;;;;;;;4.20;1.90;;;17.60;99.90;;;;;;5052139;28;20182;-71
2022/05/24 05:33:42;;;;;;;1.50;1.42;;;18.30;99.90;;;;;;5053201;28;20177;-71
2022/05/24 05:36:08;;;;;;;2.28;1.70;;;18.60;99.90;;;;;;5052046;28;20540;-71
2022/05/24 05:38:34;;;;;;;2.28;1.60;;;18.70;99.90;;;;;;5053322;28;20185;-71
2022/05/24 05:41:00;;;;;;;1.73;1.35;;;18.80;99.90;;;;;;5051874;28;20483;-71
2022/05/24 05:43:26;;;;;;;1.70;1.40;;;18.70;99.90;;;;;;5052984;28;20220;-71
2022/05/24 05:45:53;;;;;;;1.75;1.63;;;18.50;99.90;;;;;;5052941;28;20185;-71
2022/05/24 05:48:19;;;;;;;1.40;1.25;;;18.30;99.90;;;;;;5052835;28;20189;-71
2022/05/24 05:50:46;;;;;;;1.58;1.10;;;18.10;99.90;;;;;;5053135;28;20509;-71
2022/05/24 05:53:11;;;;;;;1.88;1.30;;;18.10;99.90;;;;;;5052608;28;20507;-70
2022/05/24 05:55:37;;;;;;;2.40;1.30;;;18.20;99.90;;;;;;5053065;28;20184;-71
2022/05/24 05:58:03;;;;;;;1.13;1.13;;;18.40;99.90;;;;;;5052518;28;20178;-71
2022/05/24 06:00:28;;;;;;;2.05;1.58;;;18.60;99.90;;;;;;5052597;28;20256;-71
2022/05/24 06:02:54;;;;;;;4.40;1.80;;;18.60;99.90;;;;;;5052428;28;20573;-71
2022/05/24 06:05:19;;;;;;;3.30;1.40;;;18.50;99.90;;;;;;5052303;28;20177;-71
2022/05/24 06:07:45;;;;;;;1.60;1.50;;;18.30;99.90;;;;;;5052366;28;20181;-71
2022/05/24 06:10:12;;;;;;;3.20;1.45;;;18.20;99.90;;;;;;5051676;28;20177;-71
2022/05/24 06:12:37;;;;;;;3.38;1.60;;;17.90;99.90;;;;;;5051505;28;20181;-71
2022/05/24 06:15:03;;;;;;;4.47;1.60;;;17.80;99.90;;;;;;5052487;28;20173;-71
2022/05/24 06:17:29;;;;;;;3.08;1.75;;;17.60;99.90;;;;;;5051654;28;20297;-71
2022/05/24 06:19:59;;;;;;;3.35;1.80;;;17.50;99.90;;;;;;5052171;28;20204;-73
2022/05/24 06:22:24;;;;;;;2.75;1.60;;;17.50;99.90;;;;;;5039968;28;20221;-72
2022/05/24 06:24:50;;;;;;;3.10;1.70;;;17.50;99.90;;;;;;5040394;28;20674;-72
2022/05/24 06:27:22;;;;;;;1.73;1.63;;;17.60;99.90;;;;;;5051593;28;20181;-71
2022/05/24 06:29:48;;;;;;;2.85;1.40;;;17.50;99.90;;;;;;5052104;28;20781;-71
2022/05/24 06:32:13;;;;;;;1.88;1.17;;;17.30;99.90;;;;;;5051538;28;20205;-70
2022/05/24 06:34:39;;;;;;;0.90;0.85;;;17.20;99.90;;;;;;5052114;28;20659;-70
2022/05/24 06:37:04;;;;;;;0.75;0.75;;;16.50;99.90;;;;;;5052122;28;20224;-69
2022/05/24 06:39:30;;;;;;;1.75;1.00;;;16.10;99.90;;;;;;5052000;28;20174;-69
2022/05/24 06:41:55;;;;;;;2.47;0.90;;;15.80;99.90;;;;;;5051849;28;20205;-70
2022/05/24 06:44:21;;;;;;;3.05;0.80;;;15.60;99.90;;;;;;5052205;28;20180;-70
2022/05/24 06:46:46;;;;;;;1.17;0.60;;;15.40;99.90;;;;;;5051991;28;20185;-69
2022/05/24 06:49:12;;;;;;;0.93;0.82;;;15.30;99.90;;;;;;5051873;28;20220;-70
2022/05/24 06:52:04;;;;;;;3.17;0.75;;;15.10;99.90;;;;;;5052017;28;20287;-70
2022/05/24 06:54:30;;;;;;;1.08;0.57;;;15.00;99.90;;;;;;5050077;28;20677;-70
2022/05/24 06:56:56;;;;;;;2.08;0.73;;;14.90;99.90;;;;;;5052090;28;20170;-68
2022/05/24 07:02:25;;;;;;;0.75;0.75;;;15.00;99.90;;;;;;5051937;28;20208;-70
2022/05/24 07:05:05;;;;;;;0.80;0.80;;;15.00;99.90;;;;;;5051700;28;20535;-71
2022/05/24 07:07:32;;;;;;;4.53;0.98;;;15.20;99.90;;;;;;5051685;28;20260;-70
2022/05/24 07:09:58;;;;;;;2.75;1.00;;;15.50;99.90;;;;;;5051760;28;20178;-70
2022/05/24 07:12:25;;;;;;;1.15;1.00;;;15.80;99.90;;;;;;5051748;28;20271;-71
2022/05/24 07:14:52;;;;;;;1.00;0.93;;;16.00;99.90;;;;;;5051668;28;20181;-71
2022/05/24 07:17:18;;;;;;;3.35;1.10;;;16.10;99.90;;;;;;5049996;28;20598;-71
2022/05/24 07:19:45;;;;;;;1.05;0.65;;;16.10;99.90;;;;;;5051680;28;20177;-71
2022/05/24 07:22:11;;;;;;;0.95;0.90;;;16.10;99.90;;;;;;5040951;28;20264;-70
2022/05/24 07:24:38;;;;;;;0.95;0.70;;;16.00;99.90;;;;;;5031620;28;20181;-71
2022/05/24 07:27:07;;;;;;;0.80;0.80;;;15.90;99.90;;;;;;5038989;28;20176;-71
2022/05/24 07:29:35;;;;;;;1.33;0.82;;;15.80;99.90;;;;;;5051501;28;20185;-71
2022/05/24 07:32:01;;;;;;;0.70;0.68;;;15.80;99.90;;;;;;5051363;28;20209;-72
2022/05/24 07:34:27;;;;;;;0.63;0.60;;;15.80;99.90;;;;;;5051464;28;20232;-72
2022/05/24 07:36:52;;;;;;;0.60;0.60;;;15.80;99.90;;;;;;5051550;28;20177;-71
2022/05/24 07:39:18;;;;;;;0.63;0.63;;;15.70;99.90;;;;;;5051260;28;20178;-71
2022/05/24 07:47:12;;;;;;;0.43;0.43;;;15.50;99.90;;;;;;5051418;28;20234;-70
2022/05/24 07:49:37;;;;;;;0.98;0.65;;;15.60;99.90;;;;;;5051390;28;20182;-71
2022/05/24 07:52:04;;;;;;;0.55;0.55;;;15.70;99.90;;;;;;5051406;28;20181;-71
2022/05/24 07:54:30;;;;;;;0.47;0.45;;;15.80;99.90;;;;;;5052347;28;20177;-72
2022/05/24 07:56:56;;;;;;;0.93;0.77;;;15.70;99.90;;;;;;5055306;28;20664;-68
2022/05/24 07:59:21;;;;;;;2.28;0.60;;;15.80;99.90;;;;;;5055151;28;20186;-72
2022/05/24 08:01:47;;;;;;;0.95;0.70;;;15.90;99.90;;;;;;5055109;28;20208;-71
2022/05/24 08:04:12;;;;;;;0.70;0.70;;;16.00;99.90;;;;;;5055110;28;20174;-72
2022/05/24 08:06:38;;;;;;;1.70;0.70;;;16.10;99.90;;;;;;5054954;28;20177;-71
2022/05/24 08:09:04;;;;;;;0.57;0.57;;;16.20;99.90;;;;;;5054878;28;20190;-71
2022/05/24 08:11:29;;;;;;;1.60;0.60;;;16.50;99.90;;;;;;5054930;28;20174;-71
2022/05/24 08:13:58;;;;;;;1.75;0.60;;;16.70;99.90;;;;;;5054950;28;20508;-71
2022/05/24 08:16:24;;;;;;;0.68;0.60;;;16.90;99.90;;;;;;5054797;28;20174;-71
2022/05/24 08:18:49;;;;;;;0.52;0.50;;;17.20;99.90;;;;;;5054705;28;20707;-71
2022/05/24 08:21:15;;;;;;;0.65;0.60;;;17.40;99.90;;;;;;5051941;28;20232;-72
2022/05/24 08:23:41;;;;;;;0.82;0.80;;;17.60;99.90;;;;;;5034764;28;20260;-71
2022/05/24 08:26:07;;;;;;;1.25;0.70;;;17.90;99.90;;;;;;5034730;28;20175;-72
2022/05/24 08:28:32;;;;;;;1.55;0.60;;;17.90;99.90;;;;;;5054353;28;20276;-72
2022/05/24 08:30:59;;;;;;;0.93;0.55;;;17.70;99.90;;;;;;5054564;28;20181;-72
2022/05/24 08:33:28;;;;;;;1.02;0.57;;;17.70;99.90;;;;;;5054574;28;20264;-72
2022/05/24 08:35:54;;;;;;;0.90;0.70;;;17.60;99.90;;;;;;5054529;28;20637;-72
2022/05/24 08:38:19;;;;;;;4.28;0.80;;;17.50;99.90;;;;;;5053418;28;20238;-71
2022/05/24 08:40:48;;;;;;;0.68;0.68;;;17.20;99.90;;;;;;5054629;28;20180;-71
2022/05/24 08:43:47;;;;;;;4.47;2.00;;;17.10;99.90;;;;;;5054277;28;20216;-71
2022/05/24 08:49:05;;;;;;;0.85;0.70;;;17.60;99.90;;;;;;5054529;28;20169;-72
2022/05/24 08:51:42;;;;;;;0.65;0.65;;;18.00;99.90;;;;;;5054334;28;20239;-71
2022/05/24 08:54:15;;;;;;;4.72;1.38;;;18.60;99.90;;;;;;5054219;28;20180;-71
2022/05/24 08:56:52;;;;;;;2.08;0.93;;;19.20;99.90;;;;;;5054130;28;20662;-72
2022/05/24 08:59:38;;;;;;;1.15;0.93;;;19.60;99.90;;;;;;5054039;28;20182;-71
2022/05/24 09:02:06;;;;;;;0.68;0.68;;;19.80;99.90;;;;;;5053970;28;20205;-71
2022/05/24 09:04:33;;;;;;;1.83;0.90;;;19.50;99.90;;;;;;5054128;28;20276;-71
2022/05/24 09:07:12;;;;;;;0.73;0.63;;;19.40;99.90;;;;;;5053684;28;20180;-71
2022/05/24 09:09:43;;;;;;;2.33;0.70;;;19.70;99.90;;;;;;5053902;28;20287;-71
2022/05/24 09:12:38;;;;;;;2.20;0.77;;;19.40;99.90;;;;;;5053802;28;20181;-71
2022/05/24 09:15:11;;;;;;;1.40;0.70;;;19.10;99.90;;;;;;5053847;28;20184;-71
2022/05/24 09:17:57;;;;;;;0.68;0.63;;;19.30;99.90;;;;;;5053605;28;20294;-71
2022/05/24 09:20:41;;;;;;;1.70;0.60;;;20.00;99.90;;;;;;5052770;28;20197;-71
2022/05/24 09:23:28;;;;;;;0.55;0.55;;;20.40;99.90;;;;;;5051543;28;20684;-69
2022/05/24 09:26:08;;;;;;;0.73;0.52;;;20.50;99.00;;;;;;5053711;28;20165;-70
2022/05/24 09:28:56;;;;;;;2.17;0.50;;;20.60;97.50;;;;;;5053455;28;20526;-70
2022/05/24 09:31:35;;;;;;;1.55;0.68;;;20.20;97.80;;;;;;5053574;28;20634;-71
2022/05/24 09:34:12;;;;;;;0.70;0.70;;;20.40;99.80;;;;;;5053463;28;20268;-71
2022/05/24 09:36:51;;;;;;;0.98;0.95;;;20.10;98.80;;;;;;5053395;28;20188;-69
2022/05/24 09:39:31;;;;;;;1.27;0.45;;;20.20;98.70;;;;;;5053233;28;20208;-69
2022/05/24 09:42:03;;;;;;;0.60;0.60;;;20.30;98.00;;;;;;5053276;28;20242;-67
2022/05/24 09:45:10;;;;;;;0.93;0.70;;;20.60;98.10;;;;;;5053201;28;20264;-69
2022/05/24 09:47:50;;;;;;;1.42;0.45;;;20.70;97.30;;;;;;5043921;28;20195;-68
2022/05/24 09:50:19;;;;;;;0.20;0.20;;;21.00;98.00;;;;;;5053166;28;20269;-68
2022/05/24 09:53:04;;;;;;;2.10;0.55;;;21.00;96.60;;;;;;5053153;28;20176;-69
2022/05/24 09:55:43;;;;;;;2.15;0.80;;;21.00;95.70;;;;;;5053149;28;20181;-69
2022/05/24 09:58:17;;;;;;;0.60;0.60;;;20.80;95.10;;;;;;5053021;28;20173;-69
2022/05/24 10:00:51;;;;;;;1.08;0.70;;;20.70;95.70;;;;;;5052968;28;20632;-69
2022/05/24 10:03:21;;;;;;;1.40;0.80;;;20.80;95.30;;;;;;5052672;28;20692;-69
2022/05/24 10:06:22;;;;;;;0.40;0.40;;;21.10;96.10;;;;;;5052931;28;20260;-69
2022/05/24 10:08:55;;;;;;;0.88;0.57;;;21.40;95.00;;;;;;5052927;28;20295;-69
2022/05/24 10:11:52;;;;;;;3.88;1.15;;;21.40;94.00;;;;;;5052725;28;20184;-70
2022/05/24 10:14:40;;;;;;;0.43;0.43;;;21.50;94.10;;;;;;5046861;28;20204;-69
2022/05/24 10:17:13;;;;;;;0.50;0.50;;;21.30;93.60;;;;;;5052010;28;20392;-69
2022/05/24 10:20:08;;;;;;;0.50;0.50;;;21.50;94.80;;;;;;5052705;28;20253;-69
2022/05/24 10:22:45;;;;;;;0.80;0.80;;;21.90;93.60;;;;;;5036758;28;20225;-69
2022/05/24 10:25:26;;;;;;;0.57;0.50;;;22.40;93.10;;;;;;5032652;28;20177;-69
2022/05/24 10:28:18;;;;;;;0.85;0.68;;;22.40;91.50;;;;;;5046604;28;20173;-69
2022/05/24 10:30:59;;;;;;;0.55;0.55;;;22.30;91.80;;;;;;5052626;28;20181;-69
2022/05/24 10:39:47;;;;;;;1.38;0.60;;;20.90;92.40;;;;;;5052191;28;20184;-69
2022/05/24 10:42:32;;;;;;;0.80;0.80;;;20.90;93.50;;;;;;5052259;28;20547;-69
2022/05/24 10:45:22;;;;;;;0.30;0.30;;;20.60;91.80;;;;;;5052244;28;20180;-69
2022/05/24 10:48:01;;;;;;;0.98;0.60;;;20.90;93.00;;;;;;5052315;28;20178;-69
2022/05/24 10:50:34;;;;;;;0.85;0.63;;;20.80;91.90;;;;;;5052325;28;20178;-69
2022/05/24 10:53:11;;;;;;;0.63;0.63;;;20.60;91.90;;;;;;5051915;28;20660;-70
2022/05/24 10:56:00;;;;;;;1.73;0.60;;;20.40;93.20;;;;;;5052148;28;20189;-69
2022/05/24 10:58:32;;;;;;;0.85;0.60;;;20.20;93.90;;;;;;5052224;28;20277;-69
2022/05/24 11:01:23;;;;;;;1.25;0.40;;;20.40;93.70;;;;;;5051909;28;20284;-69
2022/05/24 11:03:53;;;;;;;0.43;0.43;;;21.00;93.70;;;;;;5052221;28;20243;-70
2022/05/24 11:06:39;;;;;;;1.40;0.50;;;21.60;92.10;;;;;;5052339;28;20185;-70
2022/05/24 11:09:18;;;;;;;1.75;0.63;;;21.90;90.50;;;;;;5050655;28;20212;-69
2022/05/24 11:12:05;;;;;;;0.28;0.28;;;22.30;90.10;;;;;;5052187;28;20181;-69
2022/05/24 11:14:42;;;;;;;0.63;0.47;;;21.90;84.10;;;;;;5052129;28;20211;-69
2022/05/24 11:17:11;;;;;;;0.60;0.38;;;21.60;81.50;;;;;;5051736;28;20300;-70
2022/05/24 11:19:42;;;;;;;0.93;0.60;;;21.60;84.50;;;;;;5051865;28;20181;-69
2022/05/24 11:22:28;;;;;;;0.40;0.40;;;21.30;84.30;;;;;;5041774;28;20202;-69
2022/05/24 11:25:20;;;;;;;0.40;0.40;;;21.10;86.20;;;;;;5031842;28;20189;-69
2022/05/24 11:27:54;;;;;;;1.23;0.55;;;21.20;85.70;;;;;;5045075;28;20173;-69
2022/05/24 11:30:25;;;;;;;1.00;0.50;;;21.20;86.90;;;;;;5053969;28;20189;-69
2022/05/24 11:33:13;;;;;;;0.55;0.47;;;21.40;88.70;;;;;;5055867;28;20182;-69
2022/05/24 11:35:42;;;;;;;0.52;0.43;;;21.50;87.30;;;;;;5055233;28;20234;-69
2022/05/24 11:38:23;;;;;;;0.40;0.40;;;21.40;86.40;;;;;;5055664;28;20181;-70
2022/05/24 11:40:54;;;;;;;0.52;0.52;;;21.10;84.70;;;;;;5055783;28;20177;-70
2022/05/24 11:43:35;;;;;;;2.28;0.55;;;21.00;86.40;;;;;;5055335;28;20638;-70
2022/05/24 11:46:03;;;;;;;1.55;0.77;;;20.80;87.80;;;;;;5055464;28;20173;-70
2022/05/24 11:48:59;;;;;;;0.75;0.32;;;20.80;88.50;;;;;;5055812;28;20177;-70
2022/05/24 11:51:27;;;;;;;1.25;0.50;;;20.80;89.10;;;;;;5055456;28;20177;-70
2022/05/24 11:53:53;;;;;;;0.30;0.30;;;21.00;90.20;;;;;;5055471;28;20177;-70
2022/05/24 11:56:21;;;;;;;2.25;0.50;;;21.50;89.90;;;;;;5055223;28;20664;-70
2022/05/24 11:58:50;;;;;;;1.13;0.60;;;21.70;88.10;;;;;;5055307;28;20178;-70
2022/05/24 12:01:15;;;;;;;0.80;0.50;;;21.70;86.30;;;;;;5055316;28;20200;-69
2022/05/24 12:10:08;;;;;;;1.45;0.40;;;22.10;85.40;;;;;;5055112;28;20200;-69
2022/05/24 12:12:37;;;;;;;0.40;0.40;;;22.40;86.30;;;;;;5055162;28;20227;-69
2022/05/24 12:15:22;;;;;;;1.55;0.60;;;22.20;82.60;;;;;;5055011;28;20668;-69
2022/05/24 12:18:08;;;;;;;0.50;0.50;;;22.30;84.20;;;;;;5054875;28;20221;-68
2022/05/24 12:20:33;;;;;;;0.32;0.32;;;22.50;82.90;;;;;;5047619;28;20220;-69
2022/05/24 12:23:13;;;;;;;1.38;0.57;;;22.90;82.50;;;;;;5037570;28;20245;-69
2022/05/24 12:25:51;;;;;;;1.15;0.68;;;23.20;80.50;;;;;;5034997;28;20588;-68
2022/05/24 12:28:17;;;;;;;0.22;0.22;;;23.40;78.20;;;;;;5052218;28;20853;-68
2022/05/24 12:30:45;;;;;;;1.27;0.40;;;23.60;79.30;;;;;;5054817;28;20662;-69
2022/05/24 12:33:22;;;;;;;1.02;0.45;;;23.70;75.00;;;;;;5054648;28;20700;-69
2022/05/24 12:36:10;;;;;;;3.47;0.50;;;23.80;75.20;;;;;;5054691;28;20189;-69
2022/05/24 12:38:37;;;;;;;0.30;0.30;;;23.70;73.80;;;;;;5054567;28;20177;-69
2022/05/24 12:41:22;;;;;;;0.38;0.38;;;23.80;72.70;;;;;;5053733;28;20169;-69
2022/05/24 12:43:49;;;;;;;1.02;0.70;;;23.60;70.50;;;;;;5054437;28;20286;-68
2022/05/24 12:46:15;;;;;;;0.30;0.30;;;23.70;72.10;;;;;;5054429;28;20169;-69
2022/05/24 12:48:41;;;;;;;0.57;0.43;;;23.50;69.00;;;;;;5054329;28;20192;-68
2022/05/24 12:51:09;;;;;;;1.20;0.57;;;23.30;69.40;;;;;;5054229;28;20188;-69
2022/05/24 12:53:36;;;;;;;3.53;0.47;;;23.20;69.80;;;;;;5054297;28;20185;-68
2022/05/24 12:56:08;;;;;;;0.60;0.50;;;23.10;71.10;;;;;;5054135;28;20200;-69
2022/05/24 12:58:40;;;;;;;1.17;0.28;;;23.10;71.60;;;;;;5054282;28;20223;-68
2022/05/24 13:01:14;;;;;;;1.55;0.45;;;23.10;70.30;;;;;;5054069;28;20173;-69
2022/05/24 13:03:50;;;;;;;1.48;0.50;;;23.10;71.10;;;;;;5054009;28;20216;-69
2022/05/24 13:06:26;;;;;;;0.70;0.32;;;23.00;70.60;;;;;;5054195;28;20184;-69
2022/05/24 13:09:11;;;;;;;1.02;0.30;;;23.00;70.20;;;;;;5054202;28;20184;-68
2022/05/24 13:11:38;;;;;;;1.77;0.45;;;23.10;71.60;;;;;;5052656;28;20656;-68
2022/05/24 13:14:05;;;;;;;0.47;0.40;;;23.00;69.20;;;;;;5054009;28;20641;-68
2022/05/24 13:16:33;;;;;;;0.65;0.45;;;22.70;70.00;;;;;;5053868;28;20173;-66
2022/05/24 13:19:01;;;;;;;0.40;0.38;;;22.70;71.00;;;;;;5053666;28;20197;-69
2022/05/24 13:21:27;;;;;;;0.45;0.40;;;22.60;70.60;;;;;;5049562;28;20202;-69
2022/05/24 13:24:11;;;;;;;0.25;0.22;;;22.60;70.80;;;;;;5033863;28;20719;-68
2022/05/24 13:26:57;;;;;;;0.63;0.47;;;22.40;70.60;;;;;;5037569;28;20212;-68
2022/05/24 13:29:24;;;;;;;0.45;0.45;;;22.20;72.10;;;;;;5053571;28;20177;-69
2022/05/24 13:34:35;;;;;;;0.68;0.30;;;21.90;73.60;;;;;;5053683;28;20548;-69
2022/05/24 13:37:02;;;;;;;3.50;1.17;;;22.00;74.90;;;;;;5053421;28;20252;-68
2022/05/24 13:39:43;;;;;;;0.77;0.40;;;22.00;77.30;;;;;;5053560;28;20185;-68
2022/05/24 13:42:21;;;;;;;0.77;0.50;;;22.10;77.00;;;;;;5053366;28;20197;-69
2022/05/24 13:45:16;;;;;;;0.68;0.60;;;22.30;75.90;;;;;;5053519;28;20216;-69